vendredi 13 juin 2014

ALERTE SPOTTING 13/06/14

32A EC-LVP Vueling (sticker Linking Europe)
      dpt VY1983  07h00
   VY1984/VY8155  12h50/17h30
 arv  VY8154 21h45
 
320 F-GHQE Air Corsica (blanc avec titre)
   XK4503/XK4502  11h50/12h55
  XK4505/XK4504  20h15/21h20
 
 73H OO-JFD Jetairfly (arrière fuselage et winglets Flydubai)
   JAF5303/JAF5304  13h35/14h25

73H EC-JHK Air Europa (couluer Skyteam)
   UX1029/UX1222  16h05/17h00

320 Pegasus TC-DCD
   PC873/PC874  17h40/18h30


Manque les prévisions de certains AB/AH/AZ/BA/BE/IB/KM/TP/TU

*** Horaires en Heure Locale ***
Prévisions matinales soumises à modifications de dernières minutes.

Voir le log du mois pour la version 'définitive' de la journée: 
 http://www.airkalo.com/ORLYAVIATION/Logdumois.html

le TAF de la journée:

METAR: LFPO 130230Z 03006KT CAVOK 15/11 Q1023 NOSIG=
TAF LONG: LFPO 122300Z 1300/1406 02010KT CAVOK=